createdAt,value
2023-05-01T00:00:26.920Z,75.00
2023-05-01T00:02:54.551Z,75.60
2023-05-01T00:05:21.540Z,75.20
2023-05-01T00:07:48.361Z,75.50
2023-05-01T00:10:15.380Z,75.80
2023-05-01T00:12:42.302Z,76.40
2023-05-01T00:15:09.804Z,76.20
2023-05-01T00:17:36.709Z,75.70
2023-05-01T00:20:05.380Z,76.30
2023-05-01T00:22:32.431Z,75.90
2023-05-01T00:24:59.233Z,75.60
2023-05-01T00:27:26.324Z,75.70
2023-05-01T00:29:53.203Z,75.80
2023-05-01T00:32:20.184Z,76.10
2023-05-01T00:34:48.424Z,76.60
2023-05-01T00:37:16.220Z,76.60
2023-05-01T00:39:43.034Z,75.90
2023-05-01T00:42:09.921Z,76.20
2023-05-01T00:44:36.884Z,75.80
2023-05-01T00:47:04.498Z,75.70
2023-05-01T00:49:32.256Z,76.20
2023-05-01T00:51:59.320Z,76.10
2023-05-01T00:54:28.202Z,75.90
2023-05-01T00:56:55.729Z,75.80
2023-05-01T00:59:22.664Z,76.50
2023-05-01T01:01:50.806Z,76.70
2023-05-01T01:04:17.869Z,76.00
2023-05-01T01:06:56.634Z,76.50
2023-05-01T01:09:42.260Z,76.50
2023-05-01T01:12:09.108Z,76.40
2023-05-01T01:15:06.869Z,76.70
2023-05-01T01:17:37.710Z,76.70
2023-05-01T01:20:23.662Z,76.90
2023-05-01T01:23:31.440Z,76.30
2023-05-01T01:25:58.314Z,77.40
2023-05-01T01:28:53.052Z,76.20
2023-05-01T01:31:42.804Z,76.60
2023-05-01T01:34:14.263Z,76.70
2023-05-01T01:37:03.790Z,76.80
2023-05-01T01:39:44.105Z,77.10
2023-05-01T01:42:18.293Z,77.10
2023-05-01T01:44:54.872Z,77.40
2023-05-01T01:47:31.844Z,77.40
2023-05-01T01:50:04.435Z,77.30
2023-05-01T01:52:32.788Z,77.40
2023-05-01T01:55:07.683Z,77.60
2023-05-01T01:57:40.490Z,77.50
2023-05-01T02:00:11.294Z,77.70
2023-05-01T02:02:39.982Z,77.40
2023-05-01T02:05:14.927Z,77.70
2023-05-01T02:07:43.357Z,78.10
2023-05-01T02:10:13.766Z,77.80
2023-05-01T02:12:43.773Z,78.10
2023-05-01T02:15:11.032Z,77.70
2023-05-01T02:17:41.027Z,78.00
2023-05-01T02:20:10.413Z,78.00
2023-05-01T02:22:38.537Z,78.10
2023-05-01T02:25:08.680Z,78.10
2023-05-01T02:27:38.920Z,78.60
2023-05-01T02:30:06.993Z,78.80
2023-05-01T02:32:34.345Z,78.60
2023-05-01T02:35:01.558Z,79.10
2023-05-01T02:37:30.364Z,79.20
2023-05-01T02:39:58.079Z,78.80
2023-05-01T02:42:27.406Z,79.30
2023-05-01T02:45:01.633Z,78.90
2023-05-01T02:47:30.228Z,79.10
2023-05-01T02:49:59.381Z,79.70
2023-05-01T02:52:26.631Z,79.30
2023-05-01T02:54:53.590Z,78.90
2023-05-01T02:57:20.868Z,78.30
2023-05-01T02:59:47.710Z,78.00
2023-05-01T03:02:15.933Z,77.30
2023-05-01T03:04:44.032Z,76.70
2023-05-01T03:07:10.971Z,75.80
2023-05-01T03:09:38.202Z,75.80
2023-05-01T03:12:05.476Z,75.00
2023-05-01T03:14:32.699Z,74.60
2023-05-01T03:16:59.808Z,73.00
2023-05-01T03:19:27.144Z,71.50
2023-05-01T03:21:54.009Z,71.20
2023-05-01T03:24:21.075Z,68.60
2023-05-01T03:26:48.629Z,65.40
2023-05-01T03:29:15.489Z,63.20
2023-05-01T03:31:42.435Z,61.00
2023-05-01T03:34:09.289Z,58.40
2023-05-01T03:36:36.575Z,56.20
2023-05-01T03:39:04.846Z,55.90
2023-05-01T03:41:31.700Z,54.70
2023-05-01T03:43:58.511Z,53.10
2023-05-01T03:46:25.491Z,52.10
2023-05-01T03:48:52.443Z,51.60
2023-05-01T03:51:19.389Z,51.90
2023-05-01T03:53:46.436Z,51.70
2023-05-01T03:56:13.286Z,54.10
2023-05-01T03:58:40.123Z,54.70
2023-05-01T04:01:07.011Z,55.20
2023-05-01T04:03:33.945Z,54.40
2023-05-01T04:06:00.927Z,54.40
2023-05-01T04:08:27.808Z,54.10
2023-05-01T04:10:54.629Z,55.50
2023-05-01T04:13:21.485Z,55.20
2023-05-01T04:15:48.727Z,53.40
2023-05-01T04:18:15.932Z,53.30
2023-05-01T04:20:42.940Z,53.70
2023-05-01T04:23:09.916Z,53.80
2023-05-01T04:25:37.380Z,51.90
2023-05-01T04:28:04.702Z,51.10
2023-05-01T04:30:31.900Z,51.70
2023-05-01T04:32:58.848Z,51.80
2023-05-01T04:35:25.813Z,50.20
2023-05-01T04:37:52.847Z,49.50
2023-05-01T04:40:19.677Z,48.40
2023-05-01T04:42:46.568Z,47.90
2023-05-01T04:45:13.507Z,48.20
2023-05-01T04:47:40.399Z,47.70
2023-05-01T04:50:08.330Z,46.40
2023-05-01T04:52:36.034Z,45.40
2023-05-01T04:55:03.880Z,46.50
2023-05-01T04:57:30.808Z,45.90
2023-05-01T04:59:58.478Z,45.90
2023-05-01T05:02:25.746Z,45.80
2023-05-01T05:04:54.179Z,45.10
2023-05-01T05:07:21.242Z,44.30
2023-05-01T05:09:48.317Z,43.50
2023-05-01T05:12:15.161Z,42.80
2023-05-01T05:14:43.360Z,43.30
2023-05-01T05:17:10.342Z,41.40
2023-05-01T05:19:37.184Z,41.90
2023-05-01T05:22:04.405Z,41.80
2023-05-01T05:24:31.590Z,42.00
2023-05-01T05:26:58.489Z,40.90
2023-05-01T05:29:25.309Z,41.10
2023-05-01T05:31:52.174Z,40.60
2023-05-01T05:34:19.582Z,39.60
2023-05-01T05:36:46.525Z,39.70
2023-05-01T05:39:13.855Z,39.30
2023-05-01T05:41:40.670Z,39.40
2023-05-01T05:44:07.504Z,38.90
2023-05-01T05:46:34.453Z,39.80
2023-05-01T05:49:01.349Z,37.60
2023-05-01T05:51:28.286Z,38.20
2023-05-01T05:53:55.155Z,37.80
2023-05-01T05:56:22.203Z,36.90
2023-05-01T05:58:49.119Z,36.30
2023-05-01T06:01:16.326Z,36.80
2023-05-01T06:03:43.228Z,37.20
2023-05-01T06:06:10.372Z,36.90
2023-05-01T06:08:37.812Z,37.20
2023-05-01T06:11:04.822Z,37.00
2023-05-01T06:13:32.973Z,37.10
2023-05-01T06:16:00.549Z,35.70
2023-05-01T06:18:27.498Z,35.80
2023-05-01T06:20:54.484Z,35.20
2023-05-01T06:23:21.402Z,35.20
2023-05-01T06:25:49.141Z,35.00
2023-05-01T06:30:43.931Z,33.90
2023-05-01T06:33:10.958Z,34.00
2023-05-01T06:35:39.870Z,33.30
2023-05-01T06:38:06.690Z,33.40
2023-05-01T06:40:36.092Z,33.50
2023-05-01T06:43:03.813Z,33.30
2023-05-01T06:45:31.048Z,33.20
2023-05-01T06:47:57.937Z,32.70
2023-05-01T06:50:24.836Z,33.00
2023-05-01T06:52:51.694Z,32.00
2023-05-01T06:55:18.638Z,32.50
2023-05-01T06:57:45.563Z,32.00
2023-05-01T07:00:13.088Z,31.90
2023-05-01T07:02:41.063Z,32.10
2023-05-01T07:05:08.271Z,32.40
2023-05-01T07:07:37.505Z,31.50
2023-05-01T07:10:06.118Z,31.70
2023-05-01T07:12:32.981Z,31.00
2023-05-01T07:15:00.157Z,31.10
2023-05-01T07:17:29.399Z,29.20
2023-05-01T07:19:56.501Z,29.10
2023-05-01T07:22:23.631Z,30.30
2023-05-01T07:24:50.519Z,30.30
2023-05-01T07:27:17.469Z,30.50
2023-05-01T07:29:44.707Z,29.80
2023-05-01T07:32:14.455Z,30.40
2023-05-01T07:34:41.354Z,30.30
2023-05-01T07:37:08.252Z,29.30
2023-05-01T07:39:35.099Z,29.60
2023-05-01T07:42:02.024Z,29.60
2023-05-01T07:44:28.817Z,29.30
2023-05-01T07:46:55.691Z,29.40
2023-05-01T07:49:22.563Z,28.80
2023-05-01T07:51:49.739Z,28.10
2023-05-01T07:54:17.038Z,28.60
2023-05-01T07:56:43.916Z,28.70
2023-05-01T07:59:10.827Z,28.70
2023-05-01T08:01:37.656Z,28.50
2023-05-01T08:04:04.686Z,28.80
2023-05-01T08:06:32.225Z,28.40
2023-05-01T08:08:59.177Z,27.50
2023-05-01T08:11:26.869Z,28.20
2023-05-01T08:13:53.700Z,28.30
2023-05-01T08:16:21.870Z,28.70
2023-05-01T08:18:49.134Z,28.30
2023-05-01T08:21:16.026Z,28.60
2023-05-01T08:23:42.812Z,29.00
2023-05-01T08:26:09.606Z,29.40
2023-05-01T08:28:36.615Z,28.10
2023-05-01T08:31:03.856Z,28.90
2023-05-01T08:33:30.806Z,29.20
2023-05-01T08:35:57.608Z,29.30
2023-05-01T08:38:24.401Z,28.20
2023-05-01T08:40:53.851Z,28.60
2023-05-01T08:43:21.457Z,29.10
2023-05-01T08:45:49.409Z,28.10
2023-05-01T08:48:18.669Z,27.80
2023-05-01T08:50:48.416Z,28.40
2023-05-01T08:53:20.966Z,28.10
2023-05-01T08:55:49.280Z,28.40
2023-05-01T08:58:18.790Z,29.80
2023-05-01T09:00:47.360Z,28.70
2023-05-01T09:03:14.511Z,29.50
2023-05-01T09:05:41.609Z,28.90
2023-05-01T09:08:08.453Z,28.60
2023-05-01T09:10:44.473Z,28.00
2023-05-01T09:13:11.481Z,28.20
2023-05-01T09:15:40.476Z,28.50
2023-05-01T09:18:09.163Z,27.50
2023-05-01T09:20:37.827Z,28.20
2023-05-01T09:23:04.895Z,27.60
2023-05-01T09:25:31.764Z,27.50
2023-05-01T09:27:58.696Z,27.00
2023-05-01T09:30:32.761Z,27.40
2023-05-01T09:33:09.834Z,28.10
2023-05-01T09:35:49.375Z,27.80
2023-05-01T09:38:20.068Z,27.40
2023-05-01T09:40:47.110Z,28.40
2023-05-01T09:43:13.827Z,28.40
2023-05-01T09:45:42.656Z,29.40
2023-05-01T09:48:13.499Z,30.00
2023-05-01T09:50:42.361Z,29.50
2023-05-01T09:53:09.190Z,30.00
2023-05-01T09:55:36.472Z,30.70
2023-05-01T09:58:03.708Z,30.00
2023-05-01T10:00:30.604Z,30.80
2023-05-01T10:02:57.568Z,31.50
2023-05-01T10:05:24.855Z,31.70
2023-05-01T10:08:02.310Z,32.00
2023-05-01T10:10:29.314Z,32.30
2023-05-01T10:12:56.020Z,30.90
2023-05-01T10:15:26.104Z,30.60
2023-05-01T10:17:53.770Z,30.30
2023-05-01T10:20:22.865Z,29.10
2023-05-01T10:22:50.026Z,29.00
2023-05-01T10:25:17.628Z,29.80
2023-05-01T10:27:44.451Z,30.90
2023-05-01T10:30:11.496Z,30.90
2023-05-01T10:32:39.038Z,31.40
2023-05-01T10:35:08.613Z,31.90
2023-05-01T10:37:40.801Z,32.60
2023-05-01T10:40:33.971Z,33.40
2023-05-01T10:43:13.496Z,33.90
2023-05-01T10:45:40.364Z,33.70
2023-05-01T10:48:07.262Z,33.40
2023-05-01T10:50:34.759Z,33.40
2023-05-01T10:53:14.382Z,33.70
2023-05-01T10:55:47.742Z,34.60
2023-05-01T10:58:34.383Z,33.90
2023-05-01T11:01:24.499Z,34.60
2023-05-01T11:03:52.250Z,34.40
2023-05-01T11:06:19.077Z,35.60
2023-05-01T11:08:47.226Z,35.70
2023-05-01T11:11:19.861Z,36.30
2023-05-01T11:13:57.025Z,36.50
2023-05-01T11:16:42.169Z,36.20
2023-05-01T11:19:21.607Z,35.60
2023-05-01T11:21:48.754Z,34.20
2023-05-01T11:24:16.410Z,34.80
2023-05-01T11:26:43.335Z,34.30
2023-05-01T11:29:10.733Z,35.70
2023-05-01T11:31:38.157Z,36.30
2023-05-01T11:34:06.879Z,37.30
2023-05-01T11:36:50.029Z,37.40
2023-05-01T11:39:17.419Z,37.70
2023-05-01T11:41:44.325Z,38.40
2023-05-01T11:44:17.711Z,40.20
2023-05-01T11:46:44.596Z,39.60
2023-05-01T11:49:11.667Z,40.40
2023-05-01T11:51:38.447Z,39.90
2023-05-01T11:54:06.309Z,39.90
2023-05-01T11:56:33.657Z,40.00
2023-05-01T11:59:09.000Z,39.90
2023-05-01T12:01:36.626Z,39.90
2023-05-01T12:04:04.353Z,40.70
2023-05-01T12:06:43.928Z,40.40
2023-05-01T12:09:20.534Z,40.50
2023-05-01T12:11:49.033Z,41.30
2023-05-01T12:14:17.140Z,41.30
2023-05-01T12:16:44.207Z,40.90
2023-05-01T12:19:12.796Z,41.40
2023-05-01T12:21:39.585Z,41.30
2023-05-01T12:24:17.391Z,41.70
2023-05-01T12:26:45.113Z,42.50
2023-05-01T12:29:12.360Z,43.10
2023-05-01T12:31:49.021Z,44.20
2023-05-01T12:34:15.885Z,44.90
2023-05-01T12:36:52.711Z,46.30
2023-05-01T12:39:20.167Z,45.90
2023-05-01T12:41:48.266Z,46.10
2023-05-01T12:44:27.972Z,45.00
2023-05-01T12:46:57.542Z,45.60
2023-05-01T12:49:24.683Z,45.30
2023-05-01T12:51:52.466Z,44.80
2023-05-01T12:54:20.481Z,44.50
2023-05-01T12:56:47.276Z,43.60
2023-05-01T12:59:20.765Z,44.00
2023-05-01T13:01:47.698Z,43.50
2023-05-01T13:04:21.333Z,44.80
2023-05-01T13:06:48.619Z,44.20
2023-05-01T13:09:17.090Z,45.40
2023-05-01T13:11:55.817Z,44.80
2023-05-01T13:14:22.888Z,46.10
2023-05-01T13:16:50.863Z,45.70
2023-05-01T13:19:28.787Z,46.00
2023-05-01T13:21:56.843Z,45.70
2023-05-01T13:24:44.812Z,44.40
2023-05-01T13:27:11.895Z,44.80
2023-05-01T13:29:39.278Z,44.60
2023-05-01T13:32:06.795Z,44.40
2023-05-01T13:34:34.487Z,44.10
2023-05-01T13:37:01.748Z,43.90
2023-05-01T13:39:28.507Z,44.00
2023-05-01T13:41:55.267Z,42.70
2023-05-01T13:44:22.564Z,42.50
2023-05-01T13:46:49.721Z,42.30
2023-05-01T13:49:18.397Z,41.40
2023-05-01T13:51:46.640Z,41.80
2023-05-01T13:54:13.733Z,41.10
2023-05-01T13:56:41.154Z,39.20
2023-05-01T13:59:08.483Z,40.90
2023-05-01T14:01:38.888Z,40.20
2023-05-01T14:04:08.466Z,40.70
2023-05-01T14:06:36.705Z,42.60
2023-05-01T14:09:05.605Z,42.60
2023-05-01T14:11:32.451Z,43.20
2023-05-01T14:13:59.776Z,43.80
2023-05-01T14:16:27.879Z,44.20
2023-05-01T14:18:57.022Z,43.80
2023-05-01T14:21:25.418Z,43.50
2023-05-01T14:23:53.103Z,43.20
2023-05-01T14:26:21.033Z,43.00
2023-05-01T14:28:48.134Z,43.20
2023-05-01T14:31:25.430Z,44.10
2023-05-01T14:33:54.189Z,43.90
2023-05-01T14:36:21.102Z,44.10
2023-05-01T14:38:49.331Z,44.30
2023-05-01T14:41:22.116Z,43.80
2023-05-01T14:43:51.277Z,42.90
2023-05-01T14:46:21.890Z,42.30
2023-05-01T14:48:48.613Z,42.90
2023-05-01T14:51:18.979Z,42.90
2023-05-01T14:53:45.893Z,42.90
2023-05-01T14:56:12.777Z,43.30
2023-05-01T14:58:39.531Z,43.60
2023-05-01T15:01:06.388Z,44.80
2023-05-01T15:03:36.185Z,44.10
2023-05-01T15:06:04.221Z,45.20
2023-05-01T15:08:32.451Z,45.50
2023-05-01T15:10:59.749Z,46.20
2023-05-01T15:13:26.642Z,45.70
2023-05-01T15:15:54.199Z,46.80
2023-05-01T15:18:22.365Z,46.70
2023-05-01T15:20:49.234Z,46.60
2023-05-01T15:23:16.060Z,47.20
2023-05-01T15:25:47.653Z,47.10
2023-05-01T15:28:14.477Z,47.40
2023-05-01T15:30:44.856Z,48.40
2023-05-01T15:33:11.728Z,48.20
2023-05-01T15:35:38.656Z,47.40
2023-05-01T15:38:05.833Z,48.80
2023-05-01T15:40:33.580Z,49.50
2023-05-01T15:43:01.314Z,49.90
2023-05-01T15:45:28.258Z,50.10
2023-05-01T15:47:55.042Z,50.70
2023-05-01T15:50:23.568Z,49.00
2023-05-01T15:52:50.528Z,48.40
2023-05-01T15:55:17.883Z,49.30
2023-05-01T15:57:48.622Z,49.80
2023-05-01T16:00:16.811Z,50.60
2023-05-01T16:02:44.622Z,50.20
2023-05-01T16:05:12.247Z,50.40
2023-05-01T16:07:39.456Z,49.60
2023-05-01T16:10:07.997Z,49.60
2023-05-01T16:12:34.753Z,49.70
2023-05-01T16:15:02.835Z,50.40
2023-05-01T16:17:31.763Z,50.30
2023-05-01T16:20:00.285Z,50.60
2023-05-01T16:22:28.269Z,50.80
2023-05-01T16:24:55.089Z,52.20
2023-05-01T16:27:21.865Z,51.10
2023-05-01T16:29:48.636Z,51.90
2023-05-01T16:32:16.774Z,51.60
2023-05-01T16:34:44.217Z,51.90
2023-05-01T16:37:13.134Z,52.00
2023-05-01T16:39:39.853Z,53.00
2023-05-01T16:42:06.547Z,52.90
2023-05-01T16:44:35.498Z,52.00
2023-05-01T16:47:03.512Z,52.40
2023-05-01T16:49:30.412Z,52.50
2023-05-01T16:51:58.518Z,52.00
2023-05-01T16:54:31.885Z,52.40
2023-05-01T16:56:59.141Z,53.20
2023-05-01T16:59:25.976Z,52.80
2023-05-01T17:01:52.942Z,52.20
2023-05-01T17:04:19.881Z,53.00
2023-05-01T17:06:46.731Z,54.30
2023-05-01T17:09:13.668Z,53.40
2023-05-01T17:11:40.973Z,53.40
2023-05-01T17:14:07.826Z,53.60
2023-05-01T17:16:34.705Z,53.90
2023-05-01T17:19:04.362Z,55.10
2023-05-01T17:21:32.354Z,55.50
2023-05-01T17:23:59.055Z,55.50
2023-05-01T17:26:25.926Z,55.20
2023-05-01T17:28:52.610Z,55.40
2023-05-01T17:31:21.875Z,55.60
2023-05-01T17:33:49.405Z,56.20
2023-05-01T17:36:16.304Z,55.80
2023-05-01T17:38:43.026Z,56.40
2023-05-01T17:41:09.791Z,55.50
2023-05-01T17:43:36.535Z,54.60
2023-05-01T17:46:04.910Z,55.40
2023-05-01T17:48:31.821Z,54.40
2023-05-01T17:50:58.735Z,54.80
2023-05-01T17:53:25.711Z,55.30
2023-05-01T17:55:52.897Z,56.30
2023-05-01T17:58:20.566Z,55.20
2023-05-01T18:00:47.658Z,55.50
2023-05-01T18:03:14.528Z,55.50
2023-05-01T18:05:41.507Z,55.00
2023-05-01T18:08:08.213Z,55.40
2023-05-01T18:10:35.006Z,57.10
2023-05-01T18:13:01.929Z,56.30
2023-05-01T18:15:28.668Z,54.60
2023-05-01T18:17:55.509Z,55.40
2023-05-01T18:20:22.785Z,55.00
2023-05-01T18:22:50.019Z,55.20
2023-05-01T18:25:17.128Z,55.30
2023-05-01T18:27:45.193Z,54.50
2023-05-01T18:30:12.402Z,53.70
2023-05-01T18:32:46.881Z,54.60
2023-05-01T18:35:15.775Z,54.60
2023-05-01T18:37:42.954Z,53.50
2023-05-01T18:40:09.984Z,53.50
2023-05-01T18:42:36.680Z,55.30
2023-05-01T18:45:04.127Z,54.30
2023-05-01T18:47:32.609Z,53.50
2023-05-01T18:49:59.835Z,52.80
2023-05-01T18:52:28.253Z,52.50
2023-05-01T18:54:54.997Z,52.50
2023-05-01T18:57:22.651Z,53.00
2023-05-01T18:59:49.525Z,54.30
2023-05-01T19:02:16.288Z,53.30
2023-05-01T19:04:55.451Z,54.00
2023-05-01T19:07:23.894Z,53.30
2023-05-01T19:09:51.259Z,53.80
2023-05-01T19:12:18.044Z,53.90
2023-05-01T19:14:44.795Z,54.40
2023-05-01T19:17:11.545Z,55.50
2023-05-01T19:19:38.342Z,55.00
2023-05-01T19:22:05.066Z,54.80
2023-05-01T19:24:31.869Z,55.60
2023-05-01T19:26:58.746Z,54.70
2023-05-01T19:29:26.010Z,55.40
2023-05-01T19:31:52.778Z,55.30
2023-05-01T19:34:20.120Z,56.20
2023-05-01T19:36:46.834Z,55.90
2023-05-01T19:39:13.975Z,56.10
2023-05-01T19:41:40.788Z,56.00
2023-05-01T19:44:08.059Z,56.10
2023-05-01T19:46:34.809Z,56.80
2023-05-01T19:49:01.531Z,56.60
2023-05-01T19:51:28.359Z,56.70
2023-05-01T19:53:55.156Z,57.10
2023-05-01T19:56:23.127Z,58.20
2023-05-01T19:58:50.032Z,59.00
2023-05-01T20:01:16.869Z,57.90
2023-05-01T20:03:43.665Z,58.80
2023-05-01T20:06:10.724Z,59.00
2023-05-01T20:08:37.654Z,59.00
2023-05-01T20:11:04.437Z,58.90
2023-05-01T20:13:31.149Z,59.00
2023-05-01T20:15:57.912Z,59.40
2023-05-01T20:18:24.697Z,59.40
2023-05-01T20:20:51.443Z,60.10
2023-05-01T20:23:23.391Z,60.20
2023-05-01T20:25:52.162Z,59.90
2023-05-01T20:28:20.849Z,60.00
2023-05-01T20:30:48.767Z,60.50
2023-05-01T20:33:17.140Z,60.40
2023-05-01T20:35:45.078Z,61.20
2023-05-01T20:38:11.893Z,61.00
2023-05-01T20:40:40.325Z,60.70
2023-05-01T20:43:07.308Z,61.40
2023-05-01T20:45:34.318Z,61.20
2023-05-01T20:48:01.735Z,61.20
2023-05-01T20:50:29.318Z,61.70
2023-05-01T20:52:56.233Z,61.40
2023-05-01T20:55:23.746Z,61.80
2023-05-01T20:57:50.624Z,62.60
2023-05-01T21:00:17.522Z,62.50
2023-05-01T21:02:44.570Z,62.60
2023-05-01T21:05:11.980Z,62.70
2023-05-01T21:07:39.779Z,62.70
2023-05-01T21:10:07.810Z,62.80
2023-05-01T21:12:34.597Z,63.30
2023-05-01T21:15:04.496Z,63.80
2023-05-01T21:17:32.585Z,63.60
2023-05-01T21:19:59.835Z,64.10
2023-05-01T21:22:26.933Z,64.30
2023-05-01T21:24:57.997Z,64.40
2023-05-01T21:27:25.675Z,63.70
2023-05-01T21:29:57.956Z,63.50
2023-05-01T21:32:29.337Z,63.90
2023-05-01T21:34:56.622Z,64.10
2023-05-01T21:37:23.458Z,63.00
2023-05-01T21:39:50.602Z,62.90
2023-05-01T21:42:17.509Z,62.70
2023-05-01T21:44:44.368Z,63.40
2023-05-01T21:47:11.607Z,63.30
2023-05-01T21:49:39.862Z,63.20
2023-05-01T21:52:08.985Z,64.00
2023-05-01T21:54:36.098Z,63.60
2023-05-01T21:57:05.534Z,64.70
2023-05-01T21:59:35.031Z,63.60
2023-05-01T22:02:08.333Z,63.60
2023-05-01T22:04:35.190Z,63.80
2023-05-01T22:07:02.021Z,63.60
2023-05-01T22:09:28.911Z,63.80
2023-05-01T22:11:55.929Z,64.10
2023-05-01T22:14:22.699Z,64.60
2023-05-01T22:16:49.523Z,64.30
2023-05-01T22:19:16.635Z,64.40
2023-05-01T22:21:43.381Z,64.70
2023-05-01T22:24:10.180Z,64.60
2023-05-01T22:26:37.595Z,64.80
2023-05-01T22:29:04.569Z,64.80
2023-05-01T22:31:31.297Z,64.40
2023-05-01T22:33:58.092Z,65.00
2023-05-01T22:36:24.889Z,64.90
2023-05-01T22:38:51.757Z,64.70
2023-05-01T22:41:18.581Z,64.80
2023-05-01T22:43:45.667Z,64.70
2023-05-01T22:46:12.349Z,64.90
2023-05-01T22:48:39.073Z,65.20
2023-05-01T22:51:06.744Z,65.00
2023-05-01T22:53:33.488Z,65.90
2023-05-01T22:56:00.785Z,65.60
2023-05-01T22:58:27.500Z,65.70
2023-05-01T23:00:54.181Z,65.50
2023-05-01T23:03:21.086Z,65.70
2023-05-01T23:05:48.804Z,65.60
2023-05-01T23:08:15.598Z,65.70
2023-05-01T23:10:42.681Z,65.60
2023-05-01T23:13:17.515Z,65.90
2023-05-01T23:15:46.415Z,65.90
2023-05-01T23:18:21.446Z,65.80
2023-05-01T23:20:49.697Z,66.90
2023-05-01T23:23:17.110Z,66.30
2023-05-01T23:25:48.998Z,66.50
2023-05-01T23:28:23.690Z,66.40
2023-05-01T23:31:00.171Z,66.10
2023-05-01T23:33:28.001Z,66.10
2023-05-01T23:35:54.691Z,66.00
2023-05-01T23:38:21.473Z,66.00
2023-05-01T23:40:49.686Z,66.10
2023-05-01T23:43:16.958Z,65.90
2023-05-01T23:45:43.956Z,65.80
2023-05-01T23:48:10.926Z,65.70
2023-05-01T23:50:37.841Z,65.20
2023-05-01T23:53:08.182Z,65.50
2023-05-01T23:55:35.507Z,65.40
2023-05-01T23:58:02.389Z,65.20
